Time;durP1;ratioP1;P1;durP2;ratioP2;P2;SDS_P1;SDS_P2;PMS_P1;PMS_P2;Temp;Humidity;BMP_temperature;BMP_pressure;BME280_temperature;BME280_humidity;BME280_pressure;Samples;Min_cycle;Max_cycle;Signal;HPM_P1;HPM_P2
2023/01/21 00:00:09;;;;;;;84.72;48.13;;;;;;;4.52;78.52;100769.41;4824397;29;20059;-78
2023/01/21 00:02:50;;;;;;;84.40;49.03;;;;;;;4.22;78.70;100730.88;4846606;29;20091;-77
2023/01/21 00:05:17;;;;;;;87.90;49.75;;;;;;;4.34;79.40;100748.53;4861746;29;20551;-77
2023/01/21 00:07:44;;;;;;;79.60;47.00;;;;;;;4.34;79.75;100745.06;4850097;29;20124;-80
2023/01/21 00:10:17;;;;;;;88.95;48.90;;;;;;;4.50;79.76;100753.72;4867863;29;20048;-79
2023/01/21 00:12:52;;;;;;;81.30;46.10;;;;;;;4.46;78.81;100734.66;4860799;29;20051;-79
2023/01/21 00:15:19;;;;;;;80.45;48.40;;;;;;;4.57;78.82;100757.66;4871005;29;20067;-79
2023/01/21 00:17:55;;;;;;;79.90;46.53;;;;;;;4.66;77.63;100753.59;4877302;29;20555;-77
2023/01/21 00:20:37;;;;;;;81.97;46.35;;;;;;;4.51;76.70;100726.47;4835983;29;20524;-79
2023/01/21 00:23:10;;;;;;;78.38;45.22;;;;;;;4.53;76.80;100752.69;4843951;29;20447;-78
2023/01/21 00:25:43;;;;;;;73.18;45.72;;;;;;;4.20;77.62;100707.34;4852133;29;20487;-79
2023/01/21 00:28:29;;;;;;;75.07;43.60;;;;;;;4.42;77.51;100748.94;4847349;29;20309;-77
2023/01/21 00:30:58;;;;;;;78.13;45.55;;;;;;;4.43;77.51;100750.63;4821884;29;20052;-79
2023/01/21 00:33:39;;;;;;;83.78;46.85;;;;;;;4.38;77.70;100742.16;4838411;29;20566;-79
2023/01/21 00:36:21;;;;;;;86.57;47.13;;;;;;;4.00;78.15;100695.38;4851343;29;20068;-78
2023/01/21 00:38:48;;;;;;;77.73;46.20;;;;;;;4.26;78.10;100738.50;4858180;29;20328;-79
2023/01/21 00:41:17;;;;;;;85.27;50.03;;;;;;;4.23;78.51;100732.59;4846812;29;20643;-79
2023/01/21 00:43:43;;;;;;;77.20;45.57;;;;;;;4.32;78.61;100726.78;4864678;29;20387;-79
2023/01/21 00:46:13;;;;;;;81.93;48.63;;;;;;;4.32;77.58;100729.41;4840609;29;20048;-81
2023/01/21 00:48:48;;;;;;;78.83;45.73;;;;;;;4.26;77.87;100721.88;4826759;29;20159;-81
2023/01/21 00:51:23;;;;;;;85.20;47.93;;;;;;;4.29;77.87;100726.94;4818095;29;20274;-80
2023/01/21 00:54:03;;;;;;;82.70;46.67;;;;;;;4.33;77.58;100733.72;4849118;29;20151;-79
2023/01/21 00:56:46;;;;;;;79.37;47.00;;;;;;;4.33;77.81;100725.84;4843883;29;20466;-78
2023/01/21 00:59:21;;;;;;;75.03;46.40;;;;;;;4.21;77.19;100697.66;4842893;29;20075;-79
2023/01/21 01:01:55;;;;;;;76.17;43.97;;;;;;;4.43;76.93;100732.22;4854483;29;20145;-79
2023/01/21 01:04:30;;;;;;;80.53;44.08;;;;;;;4.40;77.04;100729.78;4856203;29;20051;-79
2023/01/21 01:07:11;;;;;;;79.53;45.97;;;;;;;4.43;75.70;100719.06;4866762;29;20048;-76
2023/01/21 01:09:37;;;;;;;83.33;44.37;;;;;;;4.31;76.49;100711.94;4870073;29;20310;-80
2023/01/21 01:12:05;;;;;;;73.22;43.20;;;;;;;4.01;75.63;100655.06;4890158;29;20407;-80
2023/01/21 01:14:31;;;;;;;68.83;41.27;;;;;;;4.35;75.02;100707.34;4888608;29;20336;-78
2023/01/21 01:17:01;;;;;;;79.68;42.92;;;;;;;4.33;74.81;100704.81;4882553;29;20139;-80
2023/01/21 01:19:31;;;;;;;68.65;41.15;;;;;;;4.28;75.69;100712.13;4890108;29;20191;-79
2023/01/21 01:22:00;;;;;;;77.40;44.35;;;;;;;4.16;75.26;100689.22;4888379;29;20059;-78
2023/01/21 01:24:31;;;;;;;75.82;44.72;;;;;;;4.23;75.96;100698.44;4888075;29;20063;-78
2023/01/21 01:26:58;;;;;;;74.40;45.50;;;;;;;4.23;75.93;100699.25;4895143;29;20276;-79
2023/01/21 01:29:31;;;;;;;76.00;43.72;;;;;;;4.18;76.16;100693.44;4870466;29;20646;-80
2023/01/21 01:31:59;;;;;;;71.37;41.23;;;;;;;4.10;76.13;100681.69;4883977;29;20109;-79
2023/01/21 01:34:25;;;;;;;69.03;43.10;;;;;;;4.19;75.69;100684.63;4876054;29;20149;-80
2023/01/21 01:37:00;;;;;;;71.03;42.08;;;;;;;4.15;75.39;100682.25;4861555;29;20143;-78
2023/01/21 01:39:27;;;;;;;74.03;40.50;;;;;;;4.24;74.68;100692.22;4873293;29;20048;-80
2023/01/21 01:42:03;;;;;;;72.53;41.90;;;;;;;4.31;74.29;100693.53;4868948;29;20155;-78
2023/01/21 01:44:55;;;;;;;80.05;42.63;;;;;;;4.27;74.66;100697.28;4878747;29;20120;-80
2023/01/21 01:47:35;;;;;;;75.95;44.08;;;;;;;4.15;74.67;100671.75;4858305;29;20402;-78
2023/01/21 01:50:06;;;;;;;77.37;41.70;;;;;;;3.16;74.86;100514.06;4888379;29;20131;-80
2023/01/21 01:52:33;;;;;;;77.80;44.80;;;;;;;4.17;75.07;100675.13;4871075;29;20195;-80
2023/01/21 01:55:04;;;;;;;84.33;44.67;;;;;;;3.93;74.64;100628.44;4860481;29;20128;-80
2023/01/21 01:57:37;;;;;;;73.17;40.83;;;;;;;4.29;74.37;100679.63;4866782;29;20049;-80
2023/01/21 02:00:05;;;;;;;;;;;;;;;4.22;74.78;100671.31;4889205;29;20494;-79
2023/01/21 02:02:42;;;;;;;72.80;42.20;;;;;;;4.25;74.78;100679.00;4894340;29;20737;-80
2023/01/21 02:05:09;;;;;;;75.03;43.63;;;;;;;4.21;74.76;100674.03;4888358;29;20059;-79
2023/01/21 02:07:41;;;;;;;69.17;41.07;;;;;;;3.82;74.58;100607.22;4871032;29;20104;-80
2023/01/21 02:10:18;;;;;;;77.87;42.87;;;;;;;2.52;75.02;100385.81;4903512;29;20260;-79
2023/01/21 02:12:45;;;;;;;79.83;43.43;;;;;;;4.14;74.67;100659.56;4904170;29;20090;-79
2023/01/21 02:15:12;;;;;;;75.57;42.33;;;;;;;3.99;74.87;100646.41;4890013;29;20048;-75
2023/01/21 02:18:12;;;;;;;82.60;45.07;;;;;;;3.97;75.60;100636.94;4879246;29;20048;-78
2023/01/21 02:20:57;;;;;;;78.20;44.27;;;;;;;4.04;75.58;100659.28;4884203;29;20056;-78
2023/01/21 02:24:03;;;;;;;81.27;44.70;;;;;;;4.04;75.67;100654.88;4881912;29;20303;-79
2023/01/21 02:26:57;;;;;;;79.17;43.23;;;;;;;3.51;75.99;100574.91;4856993;29;20083;-79
2023/01/21 02:29:53;;;;;;;80.37;41.57;;;;;;;3.63;75.62;100595.19;4869546;29;20298;-80
2023/01/21 02:32:52;;;;;;;78.07;43.93;;;;;;;3.96;75.95;100651.03;4863014;29;20453;-79
2023/01/21 02:35:43;;;;;;;87.83;44.80;;;;;;;3.92;76.22;100646.91;4880543;29;20055;-80
2023/01/21 02:38:35;;;;;;;78.20;45.43;;;;;;;3.80;76.77;100624.84;4869986;29;20379;-80
2023/01/21 02:41:32;;;;;;;82.27;43.57;;;;;;;3.92;76.50;100633.75;4872976;29;20052;-78
2023/01/21 02:44:26;;;;;;;83.07;45.13;;;;;;;2.62;76.38;100428.06;4865563;29;20060;-79
2023/01/21 02:47:05;;;;;;;71.97;41.53;;;;;;;3.95;76.42;100616.00;4872715;29;20506;-79
2023/01/21 02:49:54;;;;;;;78.20;44.73;;;;;;;3.97;76.64;100611.50;4869217;29;20372;-78
2023/01/21 02:52:28;;;;;;;79.00;44.13;;;;;;;3.99;76.69;100614.91;4865641;29;20291;-78
2023/01/21 02:55:00;;;;;;;82.85;46.78;;;;;;;3.73;76.48;100566.59;4869199;29;20358;-80
2023/01/21 02:58:08;;;;;;;82.23;44.17;;;;;;;3.97;76.23;100616.78;4865327;29;20051;-79
2023/01/21 03:01:01;;;;;;;77.50;42.10;;;;;;;3.76;76.24;100576.94;4859445;29;20057;-79
2023/01/21 03:03:50;;;;;;;81.93;45.40;;;;;;;4.00;75.91;100616.56;4855919;29;20176;-78
2023/01/21 03:07:07;;;;;;;76.63;43.03;;;;;;;3.98;76.06;100607.97;4864901;29;20080;-78
2023/01/21 03:09:40;;;;;;;74.73;43.13;;;;;;;3.89;76.08;100590.13;4870611;29;20531;-77
2023/01/21 03:13:06;;;;;;;79.03;42.07;;;;;;;3.70;75.86;100571.19;4869726;29;20088;-78
2023/01/21 03:18:39;;;;;;;83.00;42.13;;;;;;;3.46;76.51;100542.84;4849268;29;20081;-78
2023/01/21 03:21:18;;;;;;;72.00;40.60;;;;;;;3.80;76.22;100594.16;4831694;29;20061;-78
2023/01/21 03:23:51;;;;;;;83.10;43.87;;;;;;;3.81;76.27;100581.88;4841614;29;20368;-79
2023/01/21 03:26:26;;;;;;;83.17;43.17;;;;;;;3.78;75.73;100582.06;4867562;29;20048;-78
2023/01/21 03:28:57;;;;;;;77.30;43.23;;;;;;;3.71;76.28;100572.88;4861453;29;20368;-78
2023/01/21 03:31:28;;;;;;;79.60;43.23;;;;;;;3.79;75.83;100592.47;4861255;29;20048;-79
2023/01/21 03:33:59;;;;;;;70.23;41.33;;;;;;;3.65;76.01;100568.84;4861841;29;20397;-76
2023/01/21 03:36:35;;;;;;;75.37;41.20;;;;;;;3.71;75.96;100578.97;4878917;29;20048;-81
2023/01/21 03:39:17;;;;;;;75.40;42.30;;;;;;;3.67;75.62;100568.75;4881581;28;20139;-79
2023/01/21 03:41:51;;;;;;;78.50;42.43;;;;;;;3.71;75.40;100567.63;4875417;29;20106;-78
2023/01/21 03:44:28;;;;;;;69.63;40.00;;;;;;;3.69;75.38;100551.97;4898150;29;20716;-78
2023/01/21 03:47:21;;;;;;;67.90;39.93;;;;;;;3.87;74.38;100588.53;4896432;29;20430;-78
2023/01/21 03:50:16;;;;;;;70.07;41.13;;;;;;;3.83;73.67;100572.94;4857056;29;20113;-77
2023/01/21 03:52:44;;;;;;;75.07;41.10;;;;;;;3.77;74.00;100577.75;4862614;29;20439;-78
2023/01/21 03:55:13;;;;;;;68.20;39.83;;;;;;;3.74;73.71;100584.03;4886728;29;20079;-78
2023/01/21 03:57:39;;;;;;;64.57;37.50;;;;;;;3.70;74.47;100571.19;4875406;29;20392;-78
2023/01/21 04:00:07;;;;;;;69.70;39.27;;;;;;;2.62;73.58;100390.50;4882060;29;20355;-79
2023/01/21 04:02:34;;;;;;;74.73;41.47;;;;;;;3.30;74.44;100505.34;4862972;29;20056;-79
2023/01/21 04:05:13;;;;;;;84.20;43.10;;;;;;;3.66;73.83;100565.25;4863039;29;20398;-79
2023/01/21 04:07:40;;;;;;;70.90;39.93;;;;;;;3.73;74.15;100555.25;4884224;29;20052;-79
2023/01/21 04:10:08;;;;;;;77.40;40.93;;;;;;;3.66;73.88;100556.56;4852868;29;20079;-79
2023/01/21 04:12:40;;;;;;;70.97;41.57;;;;;;;3.70;73.58;100558.06;4875888;29;20200;-80
2023/01/21 04:15:10;;;;;;;76.70;37.58;;;;;;;3.76;73.11;100555.03;4857341;29;20359;-80
2023/01/21 04:17:39;;;;;;;74.97;41.93;;;;;;;3.76;73.44;100571.66;4860161;29;20056;-77
2023/01/21 04:20:09;;;;;;;78.82;39.92;;;;;;;3.78;72.65;100563.69;4862491;29;20303;-78
2023/01/21 04:22:36;;;;;;;74.93;42.93;;;;;;;3.76;72.25;100565.56;4861874;29;20082;-77
2023/01/21 04:25:16;;;;;;;74.23;41.80;;;;;;;3.48;72.85;100535.72;4861450;29;20056;-78
2023/01/21 04:27:43;;;;;;;80.77;40.60;;;;;;;3.77;73.04;100567.25;4879838;29;20415;-79
2023/01/21 04:30:17;;;;;;;75.57;42.20;;;;;;;3.68;73.02;100557.31;4867190;29;20307;-79
2023/01/21 04:32:46;;;;;;;75.27;42.03;;;;;;;3.64;73.39;100540.88;4889111;29;20414;-78
2023/01/21 04:35:12;;;;;;;76.03;44.97;;;;;;;3.48;72.86;100522.63;4867441;29;20059;-78
2023/01/21 04:37:45;;;;;;;77.37;42.50;;;;;;;3.78;72.60;100571.56;4852323;29;20535;-80
2023/01/21 04:40:15;;;;;;;82.40;44.00;;;;;;;3.71;73.04;100562.38;4858572;29;20667;-78
2023/01/21 04:42:42;;;;;;;72.23;43.33;;;;;;;3.17;72.83;100464.09;4869683;29;20131;-79
2023/01/21 04:45:09;;;;;;;73.03;42.90;;;;;;;3.93;72.53;100570.63;4880082;29;20059;-79
2023/01/21 04:47:40;;;;;;;77.20;42.10;;;;;;;3.58;72.56;100505.34;4892454;29;20414;-76
2023/01/21 04:50:07;;;;;;;76.03;42.83;;;;;;;3.86;71.89;100550.94;4873153;29;20446;-77
2023/01/21 04:52:51;;;;;;;76.77;44.77;;;;;;;3.88;71.34;100543.78;4866631;29;20160;-78
2023/01/21 04:55:17;;;;;;;89.32;46.00;;;;;;;3.95;72.14;100562.66;4869131;29;20476;-78
2023/01/21 04:57:47;;;;;;;84.53;45.73;;;;;;;3.88;71.61;100542.94;4864872;29;20347;-79
2023/01/21 05:00:18;;;;;;;80.27;41.60;;;;;;;3.98;71.61;100555.44;4871541;29;20055;-79
2023/01/21 05:02:45;;;;;;;74.87;40.53;;;;;;;3.92;71.21;100531.31;4870289;29;20080;-80
2023/01/21 05:05:11;;;;;;;76.23;42.40;;;;;;;3.77;70.91;100504.25;4872664;29;20414;-77
2023/01/21 05:07:41;;;;;;;82.53;42.30;;;;;;;3.74;70.10;100497.41;4872113;29;20055;-81
2023/01/21 05:10:16;;;;;;;75.50;42.03;;;;;;;4.14;70.21;100554.47;4870988;29;20045;-79
2023/01/21 05:12:43;;;;;;;81.40;42.87;;;;;;;3.94;70.38;100535.53;4871636;29;20076;-77
2023/01/21 05:15:11;;;;;;;77.20;41.00;;;;;;;4.00;69.77;100529.88;4869982;29;20060;-79
2023/01/21 05:17:45;;;;;;;77.13;40.53;;;;;;;3.69;69.76;100493.34;4856838;29;20386;-76
2023/01/21 05:20:12;;;;;;;65.93;38.90;;;;;;;4.03;70.18;100558.63;4876323;29;20340;-77
2023/01/21 05:22:45;;;;;;;74.57;40.17;;;;;;;3.33;70.02;100429.91;4854396;29;20318;-79
2023/01/21 05:25:15;;;;;;;69.27;38.37;;;;;;;4.01;69.27;100541.25;4828160;29;20049;-79
2023/01/21 05:27:50;;;;;;;66.00;36.63;;;;;;;3.96;68.68;100524.94;4848205;29;20328;-77
2023/01/21 05:30:22;;;;;;;63.60;36.23;;;;;;;4.02;68.82;100540.31;4845630;29;20080;-80
2023/01/21 05:32:54;;;;;;;;;;;;;;;4.12;68.36;100561.59;4855528;29;20056;-79
2023/01/21 05:35:22;;;;;;;55.47;33.97;;;;;;;4.18;67.70;100563.84;4888912;29;19927;-80
2023/01/21 05:38:01;;;;;;;62.63;35.83;;;;;;;4.24;68.93;100571.34;4881761;29;20048;-79
2023/01/21 05:40:31;;;;;;;61.67;33.23;;;;;;;4.09;67.73;100533.72;4864000;29;20416;-79
2023/01/21 05:43:04;;;;;;;59.73;34.30;;;;;;;4.28;67.63;100578.94;4862396;29;20456;-78
2023/01/21 05:45:30;;;;;;;55.92;33.08;;;;;;;4.17;66.52;100552.47;4887479;29;20063;-79
2023/01/21 05:47:57;;;;;;;57.83;33.60;;;;;;;4.24;66.52;100571.34;4870225;29;20483;-78
2023/01/21 05:50:24;;;;;;;52.67;32.47;;;;;;;4.29;66.46;100574.50;4872729;29;20198;-79
2023/01/21 05:53:00;;;;;;;;;;;;;;;4.30;66.63;100576.22;4860033;29;20052;-80
2023/01/21 05:55:27;;;;;;;57.30;32.07;;;;;;;4.26;66.18;100570.28;4858133;29;20286;-79
2023/01/21 05:57:53;;;;;;;60.72;33.65;;;;;;;4.12;65.64;100551.94;4878995;29;20139;-79
2023/01/21 06:00:20;;;;;;;53.13;31.17;;;;;;;4.29;65.63;100574.50;4861529;29;20594;-80
2023/01/21 06:02:50;;;;;;;51.17;30.10;;;;;;;4.24;65.47;100581.84;4849969;29;20576;-79
2023/01/21 06:05:41;;;;;;;51.53;29.42;;;;;;;2.98;65.42;100382.22;4862920;29;20052;-79
2023/01/21 06:08:10;;;;;;;55.40;30.30;;;;;;;4.23;65.65;100593.31;4880289;29;20056;-79
2023/01/21 06:10:44;;;;;;;55.17;29.43;;;;;;;4.09;65.65;100570.50;4891353;29;20048;-79
2023/01/21 06:13:16;;;;;;;50.77;30.53;;;;;;;4.22;65.13;100581.09;4872843;29;20048;-80
2023/01/21 06:15:43;;;;;;;53.93;30.37;;;;;;;4.30;64.57;100592.00;4865855;29;20090;-78
2023/01/21 06:18:13;;;;;;;53.73;30.70;;;;;;;4.22;64.90;100588.97;4842214;29;20061;-80
2023/01/21 06:20:46;;;;;;;49.30;29.60;;;;;;;4.28;63.95;100594.69;4857970;29;20491;-79
2023/01/21 06:23:13;;;;;;;54.37;31.37;;;;;;;4.19;64.76;100584.75;4851269;29;20128;-79
2023/01/21 06:25:42;;;;;;;53.30;31.37;;;;;;;4.22;63.36;100586.34;4858890;29;20134;-79
2023/01/21 06:28:12;;;;;;;52.97;30.55;;;;;;;4.24;64.14;100602.88;4887242;29;20051;-77
2023/01/21 06:30:49;;;;;;;49.77;30.47;;;;;;;3.87;63.78;100547.38;4883704;29;20047;-78
2023/01/21 06:33:27;;;;;;;55.97;31.60;;;;;;;3.85;64.64;100544.81;4848699;29;20048;-79
2023/01/21 06:36:20;;;;;;;50.00;27.97;;;;;;;4.31;63.37;100600.72;4852650;29;20131;-79
2023/01/21 06:38:56;;;;;;;52.97;30.83;;;;;;;4.31;63.88;100605.97;4859337;29;20390;-78
2023/01/21 06:41:23;;;;;;;46.00;28.37;;;;;;;4.33;63.88;100618.06;4864958;29;20315;-78
2023/01/21 06:43:49;;;;;;;53.42;31.00;;;;;;;4.28;63.20;100602.59;4860774;29;20128;-79
2023/01/21 06:46:16;;;;;;;48.93;28.73;;;;;;;4.17;63.43;100585.78;4864625;29;20048;-79
2023/01/21 06:49:02;;;;;;;50.00;30.20;;;;;;;4.16;63.24;100599.88;4860352;29;20058;-79
2023/01/21 06:51:50;;;;;;;48.00;27.83;;;;;;;4.13;62.84;100600.09;4869093;29;20052;-78
2023/01/21 06:54:21;;;;;;;46.90;29.57;;;;;;;3.88;63.23;100566.59;4883888;29;20087;-79
2023/01/21 06:56:49;;;;;;;;;;;;;;;4.12;62.85;100614.97;4905857;29;20521;-78
2023/01/21 06:59:33;;;;;;;47.33;28.53;;;;;;;3.96;63.14;100577.47;4879840;29;19927;-78
2023/01/21 07:02:12;;;;;;;49.90;29.23;;;;;;;3.80;62.74;100551.31;4861113;29;20067;-79
2023/01/21 07:04:47;;;;;;;50.23;28.50;;;;;;;4.18;63.87;100612.00;4885535;29;20123;-76
2023/01/21 07:07:21;;;;;;;46.03;27.70;;;;;;;3.91;62.89;100561.13;4886357;29;20094;-77
2023/01/21 07:09:53;;;;;;;46.13;28.60;;;;;;;4.09;62.96;100590.69;4884865;29;20059;-78
2023/01/21 07:12:19;;;;;;;47.57;28.23;;;;;;;4.19;62.58;100624.19;4869389;29;20052;-78
2023/01/21 07:14:46;;;;;;;44.93;27.43;;;;;;;4.18;63.01;100624.28;4867812;29;20235;-78
2023/01/21 07:17:21;;;;;;;47.43;28.83;;;;;;;3.83;62.42;100569.50;4867377;29;20068;-78
2023/01/21 07:19:50;;;;;;;52.30;27.10;;;;;;;3.87;61.94;100578.03;4868695;29;20107;-79
2023/01/21 07:22:19;;;;;;;44.93;28.33;;;;;;;3.85;62.18;100604.38;4886300;29;20464;-78
2023/01/21 07:24:53;;;;;;;43.63;26.90;;;;;;;3.93;62.35;100628.44;4890419;29;20082;-78
2023/01/21 07:27:23;;;;;;;42.97;25.83;;;;;;;3.76;62.33;100612.81;4889013;29;20051;-79
2023/01/21 07:29:49;;;;;;;39.53;26.13;;;;;;;3.61;62.31;100578.66;4890673;29;20306;-78
2023/01/21 07:32:18;;;;;;;43.33;25.83;;;;;;;4.00;62.28;100644.63;4879415;29;20135;-78
2023/01/21 07:34:44;;;;;;;44.07;24.33;;;;;;;3.70;62.22;100598.28;4869207;29;20064;-77
2023/01/21 07:37:14;;;;;;;44.70;24.73;;;;;;;3.84;62.12;100615.84;4868250;29;20056;-78
2023/01/21 07:39:46;;;;;;;46.07;24.60;;;;;;;4.05;61.99;100640.81;4858727;29;20143;-79
2023/01/21 07:42:23;;;;;;;43.00;25.53;;;;;;;4.08;61.02;100650.28;4864912;29;20056;-78
2023/01/21 07:44:53;;;;;;;45.43;24.93;;;;;;;3.94;60.73;100622.22;4863394;29;20127;-78
2023/01/21 07:47:21;;;;;;;42.50;23.83;;;;;;;3.61;59.97;100577.84;4868972;29;20064;-77
2023/01/21 07:49:48;;;;;;;37.50;21.93;;;;;;;2.90;60.32;100460.53;4868642;29;20060;-78
2023/01/21 07:52:15;;;;;;;40.47;24.67;;;;;;;4.05;60.89;100653.94;4900832;29;20279;-79
2023/01/21 07:54:43;;;;;;;41.97;23.43;;;;;;;3.97;59.66;100637.78;4903436;29;20442;-79
2023/01/21 07:57:13;;;;;;;37.67;23.37;;;;;;;4.12;60.84;100661.44;4873239;29;20456;-79
2023/01/21 07:59:49;;;;;;;39.43;21.63;;;;;;;4.11;59.08;100662.38;4865477;29;20136;-76
2023/01/21 08:02:18;;;;;;;36.73;22.53;;;;;;;4.07;59.66;100665.19;4864741;29;20056;-80
2023/01/21 08:04:57;;;;;;;38.47;22.83;;;;;;;3.96;60.02;100649.25;4867219;29;20396;-81
2023/01/21 08:07:38;;;;;;;35.13;21.47;;;;;;;4.06;60.23;100674.00;4848586;29;20054;-79
2023/01/21 08:10:11;;;;;;;38.23;22.50;;;;;;;3.89;59.23;100650.56;4819592;29;20048;-82
2023/01/21 08:13:11;;;;;;;34.73;20.77;;;;;;;4.15;59.41;100666.50;4821923;29;20394;-82
2023/01/21 08:15:46;;;;;;;37.58;21.60;;;;;;;4.13;59.16;100678.91;4823100;29;20530;-82
2023/01/21 08:18:21;;;;;;;39.37;22.07;;;;;;;4.09;59.04;100659.00;4828208;29;20408;-82
2023/01/21 08:21:02;;;;;;;35.10;20.77;;;;;;;4.16;58.33;100682.19;4830544;29;20557;-82
2023/01/21 08:24:03;;;;;;;40.20;22.97;;;;;;;4.05;58.17;100660.97;4826857;29;20176;-83
2023/01/21 08:26:36;;;;;;;38.88;20.67;;;;;;;4.22;57.80;100670.44;4820645;29;20132;-81
2023/01/21 08:29:40;;;;;;;34.27;21.03;;;;;;;4.28;58.17;100677.97;4820582;29;20052;-82
2023/01/21 08:32:23;;;;;;;32.45;20.13;;;;;;;3.90;57.65;100607.56;4829504;29;20623;-83
2023/01/21 08:35:01;;;;;;;34.50;21.60;;;;;;;4.25;57.35;100667.66;4850877;29;20376;-83
2023/01/21 08:37:48;;;;;;;34.22;19.80;;;;;;;4.24;58.31;100665.94;4828115;29;20146;-83
2023/01/21 08:40:36;;;;;;;34.70;20.85;;;;;;;4.50;57.94;100691.47;4798863;29;20673;-83
2023/01/21 08:43:19;;;;;;;34.60;20.85;;;;;;;4.40;55.82;100661.44;4789883;29;20701;-83
2023/01/21 08:46:00;;;;;;;36.38;19.73;;;;;;;4.59;55.49;100697.09;4785139;29;20057;-83
2023/01/21 08:48:35;;;;;;;36.95;21.05;;;;;;;4.59;55.75;100690.06;4819921;29;20558;-82
2023/01/21 08:51:18;;;;;;;31.30;19.90;;;;;;;4.55;55.91;100690.34;4820347;29;20052;-83
2023/01/21 08:53:50;;;;;;;31.58;19.25;;;;;;;4.37;55.50;100645.00;4818597;29;20053;-82
2023/01/21 08:56:36;;;;;;;35.83;19.90;;;;;;;4.50;55.62;100665.16;4805295;29;20198;-81
2023/01/21 08:59:27;;;;;;;30.38;17.83;;;;;;;4.66;54.18;100701.88;4806293;29;20496;-83
2023/01/21 09:02:05;;;;;;;34.60;18.77;;;;;;;4.53;54.30;100697.47;4809546;29;20064;-81
2023/01/21 09:04:35;;;;;;;38.05;21.02;;;;;;;4.36;55.20;100680.94;4862190;29;20282;-81
2023/01/21 09:07:14;;;;;;;31.65;18.52;;;;;;;4.23;54.36;100637.97;4851939;29;20052;-82
2023/01/21 09:09:47;;;;;;;40.63;19.85;;;;;;;4.66;54.83;100715.03;4820666;29;20091;-83
2023/01/21 09:12:20;;;;;;;30.70;18.17;;;;;;;4.43;54.73;100671.75;4868570;29;20051;-81
2023/01/21 09:15:01;;;;;;;33.92;20.00;;;;;;;4.76;55.38;100710.03;4828823;29;20079;-82
2023/01/21 09:17:29;;;;;;;26.95;15.90;;;;;;;4.12;53.57;100607.09;4836911;29;20115;-80
2023/01/21 09:20:01;;;;;;;29.00;18.00;;;;;;;4.88;53.52;100703.16;4836007;29;20425;-77
2023/01/21 09:22:27;;;;;;;31.95;17.33;;;;;;;4.92;53.45;100710.72;4870269;29;20215;-78
2023/01/21 09:25:09;;;;;;;29.40;16.60;;;;;;;4.90;52.88;100707.38;4845286;29;20052;-79
2023/01/21 09:27:41;;;;;;;34.20;17.67;;;;;;;4.91;52.50;100703.78;4838801;29;20459;-79
2023/01/21 09:30:16;;;;;;;29.52;18.40;;;;;;;5.02;52.11;100720.69;4838757;29;20327;-80
2023/01/21 09:32:50;;;;;;;30.58;17.17;;;;;;;4.78;52.79;100708.16;4846432;29;20056;-77
2023/01/21 09:35:23;;;;;;;27.97;18.67;;;;;;;4.80;52.24;100703.63;4805304;29;20045;-79
2023/01/21 09:37:57;;;;;;;33.90;18.17;;;;;;;4.87;52.92;100718.06;4823536;29;20257;-78
2023/01/21 09:40:34;;;;;;;28.15;17.63;;;;;;;4.92;52.00;100723.88;4844576;29;20048;-77
2023/01/21 09:43:17;;;;;;;31.33;17.02;;;;;;;5.01;51.45;100724.25;4832407;29;20307;-79
2023/01/21 09:46:01;;;;;;;26.88;15.93;;;;;;;4.47;51.68;100636.44;4845480;29;20391;-78
2023/01/21 09:48:43;;;;;;;31.92;17.30;;;;;;;4.89;51.96;100721.47;4862179;29;20118;-78
2023/01/21 09:51:59;;;;;;;33.70;17.58;;;;;;;4.80;52.22;100692.25;4844778;29;20055;-78
2023/01/21 09:54:37;;;;;;;;;;;;;;;4.87;51.68;100711.97;4786322;29;20061;-78
2023/01/21 09:57:13;;;;;;;28.58;16.88;;;;;;;4.96;52.09;100715.81;4842708;29;20715;-79
2023/01/21 09:59:51;;;;;;;30.08;16.65;;;;;;;5.07;53.00;100718.59;4846418;29;20155;-78
2023/01/21 10:02:37;;;;;;;28.45;16.35;;;;;;;4.75;52.05;100661.00;4837856;29;20048;-80
2023/01/21 10:05:23;;;;;;;29.67;16.80;;;;;;;5.08;52.05;100720.31;4813660;29;20084;-79
2023/01/21 10:08:17;;;;;;;27.10;16.65;;;;;;;4.86;52.83;100679.56;4825446;29;20284;-78
2023/01/21 10:11:36;;;;;;;28.88;16.77;;;;;;;5.15;53.02;100708.44;4817278;29;20079;-79
2023/01/21 10:14:44;;;;;;;30.52;18.63;;;;;;;4.88;51.90;100648.75;4821910;29;20060;-78
2023/01/21 10:17:40;;;;;;;25.98;16.45;;;;;;;5.08;52.80;100673.78;4825959;29;20048;-78
2023/01/21 10:20:32;;;;;;;26.80;16.52;;;;;;;5.29;52.65;100691.72;4806281;29;20478;-79
2023/01/21 10:23:30;;;;;;;24.65;16.00;;;;;;;5.26;52.48;100687.50;4844263;29;20255;-78
2023/01/21 10:26:03;;;;;;;27.23;16.48;;;;;;;5.25;53.08;100679.72;4851095;29;20060;-77
2023/01/21 10:28:54;;;;;;;24.92;16.33;;;;;;;5.38;52.67;100675.34;4880288;29;20439;-76
2023/01/21 10:32:13;;;;;;;26.25;15.30;;;;;;;5.53;51.49;100673.47;4853778;29;20209;-79
2023/01/21 10:35:03;;;;;;;20.63;14.30;;;;;;;5.33;51.90;100657.22;4821016;29;20051;-78
2023/01/21 10:37:47;;;;;;;26.88;16.08;;;;;;;5.32;51.27;100647.63;4824992;29;20515;-79
2023/01/21 10:40:43;;;;;;;20.92;13.20;;;;;;;5.51;51.03;100678.88;4821346;29;20048;-78
2023/01/21 10:43:50;;;;;;;28.17;14.50;;;;;;;5.63;50.77;100677.19;4833543;29;20052;-79
2023/01/21 10:46:45;;;;;;;22.60;13.95;;;;;;;5.55;50.40;100671.59;4836526;29;20307;-77
2023/01/21 10:49:19;;;;;;;27.08;14.88;;;;;;;5.57;49.99;100672.34;4854466;29;20060;-78
2023/01/21 10:52:33;;;;;;;20.17;14.35;;;;;;;5.55;50.31;100666.31;4820184;29;20048;-80
2023/01/21 10:55:39;;;;;;;26.45;14.95;;;;;;;5.60;50.24;100668.66;4845908;29;20044;-77
2023/01/21 10:58:39;;;;;;;21.02;14.27;;;;;;;5.59;50.33;100670.44;4855816;29;20048;-77
2023/01/21 11:01:34;;;;;;;20.60;13.88;;;;;;;4.78;49.51;100534.56;4838494;29;20248;-80
2023/01/21 11:04:19;;;;;;;23.27;13.30;;;;;;;5.42;50.71;100641.78;4845340;29;20064;-78
2023/01/21 11:07:12;;;;;;;24.73;14.25;;;;;;;5.54;49.89;100649.69;4838536;29;20563;-78
2023/01/21 11:09:57;;;;;;;22.52;12.77;;;;;;;5.19;50.93;100596.75;4828386;29;20221;-79
2023/01/21 11:12:42;;;;;;;26.08;14.40;;;;;;;5.60;50.67;100656.31;4833430;29;20049;-77
2023/01/21 11:15:34;;;;;;;27.02;13.63;;;;;;;5.40;49.53;100614.69;4837944;29;20388;-78
2023/01/21 11:18:44;;;;;;;23.33;12.77;;;;;;;5.62;49.21;100656.22;4843079;29;20588;-78
2023/01/21 11:21:36;;;;;;;20.75;13.65;;;;;;;5.67;49.30;100652.31;4835533;29;20140;-80
2023/01/21 11:24:29;;;;;;;18.48;12.68;;;;;;;5.78;48.79;100657.72;4835297;29;20322;-79
2023/01/21 11:27:06;;;;;;;18.63;11.73;;;;;;;5.67;48.85;100633.88;4840977;29;20056;-83
2023/01/21 11:29:47;;;;;;;19.33;12.18;;;;;;;5.55;49.62;100639.97;4834253;29;20327;-80
2023/01/21 11:32:24;;;;;;;19.52;12.75;;;;;;;5.64;49.42;100642.00;4828553;29;20048;-81
2023/01/21 11:35:20;;;;;;;19.85;12.88;;;;;;;5.72;48.32;100652.84;4842724;29;20293;-82
2023/01/21 11:38:04;;;;;;;15.45;11.82;;;;;;;5.64;48.55;100628.84;4805073;29;20834;-82
2023/01/21 11:40:45;;;;;;;19.67;12.60;;;;;;;5.68;48.75;100637.34;4813687;29;20377;-82
2023/01/21 11:43:43;;;;;;;23.27;12.05;;;;;;;5.81;48.60;100650.56;4806928;29;20525;-82
2023/01/21 11:47:00;;;;;;;20.33;12.25;;;;;;;5.59;48.45;100630.94;4829066;29;20040;-78
2023/01/21 11:49:46;;;;;;;18.88;10.98;;;;;;;5.52;48.72;100613.88;4829564;29;20321;-78
2023/01/21 11:52:21;;;;;;;21.65;11.55;;;;;;;5.67;49.08;100630.41;4830244;29;20449;-79
2023/01/21 11:55:16;;;;;;;20.88;10.93;;;;;;;5.69;48.70;100623.25;4835301;29;20449;-77
2023/01/21 11:57:54;;;;;;;17.98;12.18;;;;;;;5.58;48.78;100592.38;4843157;29;20060;-78
2023/01/21 12:00:44;;;;;;;19.33;11.52;;;;;;;5.60;49.24;100602.81;4823657;29;20049;-78
2023/01/21 12:03:26;;;;;;;16.60;11.18;;;;;;;5.44;49.27;100574.06;4832401;29;20052;-81
2023/01/21 12:05:57;;;;;;;19.48;10.93;;;;;;;5.68;49.01;100614.53;4869042;29;20060;-76
2023/01/21 12:08:38;;;;;;;17.42;10.20;;;;;;;5.84;48.04;100624.84;4851195;29;20052;-78
2023/01/21 12:11:11;;;;;;;20.65;10.95;;;;;;;5.73;48.77;100616.84;4850617;29;20258;-78